首页
METAR-TAF:

METAR-TAF

机场 :

卡迪拉克, 密歇根州, 美国

纬度: 44-17N, 经度: 085-25W, 海拔: 398米

当前天气观测

该预报发布于22分钟前的11:56 UTC
风速14节,风向西转西北,有时为21节阵风
温度 -8°C
湿度 79%
气压 1009 hPa
能見度: 6.4公里
多云层高于1600英尺
阴天层高于2400英尺
小雪

METAR: KCAD 271156Z AUTO 29014G21KT 4SM -SN BKN016 OVC024 M08/M11 A2981 RMK AO2 T10801110

时间: 07:18 (12:18 UTC)


TAF: 丢失

超过4000个机场的气象观测和天气预报(METAR&TAF报告)。

可查询的气象台以黄色和红色小点在地图上表示。

将鼠标移到小点上方,可查看气象台名称。

然后点击查看天气观测和预报。

如需切换地图:点击带黑十字的绿色按钮放大地图;点击带横线的绿色按钮缩小地图;或者点击绿色箭头查看邻近地区的地图。


METAR-TAF: